createdAt,value
2022-08-09T00:00:48.692Z,3.50
2022-08-09T00:01:54.462Z,4.10
2022-08-09T00:02:56.962Z,4.13
2022-08-09T00:04:03.426Z,3.80
2022-08-09T00:06:19.383Z,3.90
2022-08-09T00:06:34.137Z,4.20
2022-08-09T00:07:44.946Z,3.97
2022-08-09T00:08:48.415Z,4.27
2022-08-09T00:09:51.725Z,4.10
2022-08-09T00:10:53.487Z,3.90
2022-08-09T00:12:03.454Z,3.90
2022-08-09T00:13:17.071Z,3.67
2022-08-09T00:14:27.954Z,3.77
2022-08-09T00:15:57.581Z,3.70
2022-08-09T00:17:00.270Z,4.00
2022-08-09T00:18:05.381Z,3.67
2022-08-09T00:19:12.551Z,4.33
2022-08-09T00:20:14.257Z,4.03
2022-08-09T00:21:17.136Z,3.67
2022-08-09T00:22:18.648Z,3.70
2022-08-09T00:23:56.009Z,3.17
2022-08-09T00:24:41.867Z,3.97
2022-08-09T00:25:44.075Z,3.77
2022-08-09T00:26:45.733Z,3.60
2022-08-09T00:27:48.029Z,3.90
2022-08-09T00:28:52.420Z,3.80
2022-08-09T00:30:16.445Z,3.70
2022-08-09T00:31:57.599Z,3.90
2022-08-09T00:32:38.637Z,3.80
2022-08-09T00:33:50.633Z,3.60
2022-08-09T00:34:53.375Z,3.40
2022-08-09T00:35:55.929Z,3.90
2022-08-09T00:36:57.523Z,4.00
2022-08-09T00:38:00.840Z,3.70
2022-08-09T00:39:06.110Z,3.40
2022-08-09T00:40:19.677Z,3.97
2022-08-09T00:44:10.392Z,3.73
2022-08-09T00:44:11.081Z,3.53
2022-08-09T00:44:11.923Z,3.50
2022-08-09T00:45:21.490Z,4.43
2022-08-09T00:46:44.119Z,4.30
2022-08-09T00:47:45.351Z,3.70
2022-08-09T00:48:47.637Z,3.83
2022-08-09T00:49:54.720Z,3.90
2022-08-09T00:50:57.458Z,3.73
2022-08-09T00:52:05.023Z,3.33
2022-08-09T00:53:10.326Z,4.00
2022-08-09T00:54:13.321Z,4.03
2022-08-09T00:56:03.362Z,3.40
2022-08-09T00:56:38.969Z,4.20
2022-08-09T00:57:41.576Z,3.87
2022-08-09T00:58:43.124Z,3.77
2022-08-09T00:59:52.425Z,4.30
2022-08-09T01:00:57.010Z,3.83
2022-08-09T01:02:02.446Z,3.97
2022-08-09T01:03:50.157Z,3.73
2022-08-09T01:05:02.662Z,4.10
2022-08-09T01:06:17.622Z,4.07
2022-08-09T01:08:00.178Z,4.00
2022-08-09T01:09:13.891Z,4.00
2022-08-09T01:10:37.195Z,4.43
2022-08-09T01:11:59.036Z,3.97
2022-08-09T01:13:23.514Z,4.07
2022-08-09T01:14:43.228Z,4.43
2022-08-09T01:15:52.088Z,3.73
2022-08-09T01:17:02.662Z,4.60
2022-08-09T01:18:29.806Z,3.83
2022-08-09T01:19:57.173Z,4.17
2022-08-09T01:21:16.826Z,3.70
2022-08-09T01:22:36.596Z,3.80
2022-08-09T01:24:02.294Z,3.80
2022-08-09T01:25:24.876Z,3.60
2022-08-09T01:26:41.476Z,4.10
2022-08-09T01:27:47.566Z,3.77
2022-08-09T01:28:56.276Z,4.40
2022-08-09T01:30:02.590Z,4.37
2022-08-09T01:31:11.659Z,4.00
2022-08-09T01:32:37.793Z,3.70
2022-08-09T01:33:44.428Z,4.40
2022-08-09T01:34:49.985Z,4.00
2022-08-09T01:36:22.024Z,3.83
2022-08-09T01:38:05.680Z,3.90
2022-08-09T01:38:50.427Z,3.50
2022-08-09T01:39:54.133Z,4.40
2022-08-09T01:41:36.298Z,4.10
2022-08-09T01:42:38.958Z,3.90
2022-08-09T01:43:51.535Z,4.30
2022-08-09T01:44:54.953Z,3.90
2022-08-09T01:45:58.095Z,4.03
2022-08-09T01:47:02.754Z,3.90
2022-08-09T01:48:06.021Z,3.63
2022-08-09T01:49:12.751Z,3.67
2022-08-09T01:50:18.179Z,3.93
2022-08-09T01:51:33.940Z,4.17
2022-08-09T01:52:37.741Z,3.80
2022-08-09T01:53:44.060Z,4.10
2022-08-09T01:54:56.772Z,3.97
2022-08-09T01:55:59.608Z,4.10
2022-08-09T01:57:17.565Z,4.03
2022-08-09T01:58:24.093Z,3.77
2022-08-09T01:59:32.416Z,3.83
2022-08-09T02:00:36.330Z,3.97
2022-08-09T02:02:00.293Z,3.80
2022-08-09T02:03:05.116Z,4.20
2022-08-09T02:04:10.569Z,3.90
2022-08-09T02:05:15.309Z,3.83
2022-08-09T02:06:39.561Z,3.90
2022-08-09T02:08:38.993Z,3.90
2022-08-09T02:09:16.488Z,3.93
2022-08-09T02:10:30.011Z,3.60
2022-08-09T02:11:42.223Z,3.53
2022-08-09T02:12:48.169Z,3.97
2022-08-09T02:13:55.322Z,4.07
2022-08-09T02:15:16.959Z,4.27
2022-08-09T02:16:33.872Z,3.87
2022-08-09T02:17:59.819Z,4.50
2022-08-09T02:19:08.400Z,3.97
2022-08-09T02:20:12.723Z,4.03
2022-08-09T02:21:29.653Z,3.67
2022-08-09T02:22:51.388Z,4.20
2022-08-09T02:23:56.605Z,3.93
2022-08-09T02:25:02.090Z,4.10
2022-08-09T02:26:06.545Z,4.53
2022-08-09T02:27:11.878Z,4.60
2022-08-09T02:28:29.289Z,4.07
2022-08-09T02:29:39.759Z,3.63
2022-08-09T02:30:47.823Z,3.90
2022-08-09T02:31:54.335Z,3.97
2022-08-09T02:32:57.853Z,3.97
2022-08-09T02:34:13.379Z,4.37
2022-08-09T02:36:01.577Z,3.73
2022-08-09T02:36:53.953Z,3.87
2022-08-09T02:37:58.849Z,4.00
2022-08-09T02:39:05.677Z,3.53
2022-08-09T02:40:12.063Z,4.30
2022-08-09T02:41:18.114Z,4.37
2022-08-09T02:42:32.040Z,3.80
2022-08-09T02:43:42.428Z,3.93
2022-08-09T02:45:01.971Z,3.83
2022-08-09T02:46:08.912Z,3.70
2022-08-09T02:47:14.092Z,4.20
2022-08-09T02:48:30.586Z,3.37
2022-08-09T02:49:41.627Z,4.27
2022-08-09T02:50:54.348Z,4.10
2022-08-09T02:51:59.545Z,4.10
2022-08-09T02:53:06.936Z,4.40
2022-08-09T02:54:14.501Z,3.90
2022-08-09T02:55:20.548Z,4.10
2022-08-09T02:56:24.326Z,3.57
2022-08-09T02:57:31.583Z,3.90
2022-08-09T02:58:54.739Z,3.73
2022-08-09T03:00:11.316Z,4.10
2022-08-09T03:01:21.799Z,3.63
2022-08-09T03:02:32.769Z,4.30
2022-08-09T03:04:17.598Z,4.10
2022-08-09T03:05:01.828Z,4.20
2022-08-09T03:06:06.140Z,3.63
2022-08-09T03:07:14.380Z,3.90
2022-08-09T03:08:17.172Z,4.47
2022-08-09T03:09:20.484Z,3.70
2022-08-09T03:10:22.963Z,4.23
2022-08-09T03:12:04.774Z,3.60
2022-08-09T03:12:51.009Z,4.43
2022-08-09T03:13:59.683Z,3.73
2022-08-09T03:15:04.935Z,4.80
2022-08-09T03:16:07.944Z,4.33
2022-08-09T03:17:16.604Z,4.70
2022-08-09T03:18:31.099Z,4.30
2022-08-09T03:19:52.383Z,4.90
2022-08-09T03:20:56.880Z,4.70
2022-08-09T03:21:59.189Z,4.53
2022-08-09T03:23:15.013Z,4.63
2022-08-09T03:24:42.189Z,4.37
2022-08-09T03:25:57.714Z,4.30
2022-08-09T03:27:02.767Z,4.90
2022-08-09T03:28:11.309Z,5.20
2022-08-09T03:29:22.772Z,4.50
2022-08-09T03:30:29.522Z,4.20
2022-08-09T03:31:42.615Z,4.20
2022-08-09T03:33:01.450Z,4.40
2022-08-09T03:34:07.807Z,4.10
2022-08-09T03:35:14.948Z,4.27
2022-08-09T03:36:27.725Z,4.50
2022-08-09T03:37:55.835Z,4.30
2022-08-09T03:38:51.969Z,4.03
2022-08-09T03:39:56.552Z,4.50
2022-08-09T03:40:58.481Z,4.30
2022-08-09T03:42:06.920Z,4.47
2022-08-09T03:43:08.554Z,4.20
2022-08-09T03:44:13.037Z,3.90
2022-08-09T03:45:17.459Z,4.20
2022-08-09T03:46:39.247Z,4.20
2022-08-09T03:47:44.147Z,4.63
2022-08-09T03:48:53.747Z,3.93
2022-08-09T03:49:58.036Z,4.37
2022-08-09T03:51:01.071Z,4.37
2022-08-09T03:52:04.149Z,3.90
2022-08-09T03:53:10.644Z,4.67
2022-08-09T03:54:14.157Z,4.77
2022-08-09T03:55:16.226Z,4.57
2022-08-09T03:56:19.893Z,4.20
2022-08-09T03:57:22.131Z,4.30
2022-08-09T03:58:23.996Z,4.20
2022-08-09T03:59:42.977Z,4.20
2022-08-09T04:00:50.114Z,4.90
2022-08-09T04:01:53.601Z,4.50
2022-08-09T04:02:57.427Z,4.47
2022-08-09T04:04:03.907Z,3.97
2022-08-09T04:05:17.126Z,4.30
2022-08-09T04:06:29.060Z,4.07
2022-08-09T04:07:47.380Z,4.30
2022-08-09T04:08:54.049Z,4.77
2022-08-09T04:09:56.286Z,5.50
2022-08-09T04:11:01.417Z,4.47
2022-08-09T04:12:11.790Z,4.60
2022-08-09T04:13:13.969Z,4.60
2022-08-09T04:14:53.835Z,4.50
2022-08-09T04:16:18.406Z,4.80
2022-08-09T04:17:07.530Z,4.23
2022-08-09T04:18:09.588Z,4.80
2022-08-09T04:19:30.410Z,4.30
2022-08-09T04:20:40.807Z,5.30
2022-08-09T04:21:45.285Z,4.50
2022-08-09T04:22:50.305Z,4.83
2022-08-09T04:23:54.347Z,5.00
2022-08-09T04:24:59.300Z,4.80
2022-08-09T04:26:00.789Z,4.80
2022-08-09T04:27:02.398Z,4.20
2022-08-09T04:28:04.409Z,4.53
2022-08-09T04:29:12.131Z,4.50
2022-08-09T04:30:23.476Z,4.87
2022-08-09T04:31:37.774Z,4.73
2022-08-09T04:32:49.717Z,5.40
2022-08-09T04:33:56.824Z,5.00
2022-08-09T04:35:01.844Z,4.57
2022-08-09T04:36:03.521Z,4.23
2022-08-09T04:37:05.598Z,4.73
2022-08-09T04:38:08.311Z,4.80
2022-08-09T04:39:11.252Z,4.50
2022-08-09T04:40:19.271Z,4.80
2022-08-09T04:41:33.744Z,4.80
2022-08-09T04:42:45.238Z,4.30
2022-08-09T04:44:05.998Z,4.50
2022-08-09T04:45:12.074Z,4.27
2022-08-09T04:46:19.245Z,4.50
2022-08-09T04:47:59.253Z,4.23
2022-08-09T04:48:58.554Z,4.30
2022-08-09T04:50:00.081Z,4.70
2022-08-09T04:51:01.944Z,4.80
2022-08-09T04:52:07.316Z,4.20
2022-08-09T04:53:13.320Z,4.57
2022-08-09T04:54:15.464Z,5.30
2022-08-09T04:55:26.805Z,5.10
2022-08-09T04:56:40.548Z,4.40
2022-08-09T04:57:54.148Z,5.23
2022-08-09T04:59:03.715Z,4.23
2022-08-09T05:00:10.352Z,4.70
2022-08-09T05:01:16.133Z,4.80
2022-08-09T05:02:20.271Z,4.67
2022-08-09T05:03:41.157Z,4.83
2022-08-09T05:04:44.578Z,5.07
2022-08-09T05:05:52.456Z,5.07
2022-08-09T05:06:54.363Z,4.90
2022-08-09T05:07:58.379Z,5.43
2022-08-09T05:09:01.334Z,5.07
2022-08-09T05:10:04.009Z,5.40
2022-08-09T05:11:07.467Z,5.90
2022-08-09T05:12:11.059Z,5.03
2022-08-09T05:13:14.210Z,5.10
2022-08-09T05:14:16.187Z,4.63
2022-08-09T05:15:24.564Z,5.10
2022-08-09T05:16:58.033Z,5.20
2022-08-09T05:18:37.955Z,4.53
2022-08-09T05:19:26.133Z,4.37
2022-08-09T05:20:29.666Z,5.10
2022-08-09T05:21:46.729Z,5.03
2022-08-09T05:23:54.238Z,4.20
2022-08-09T05:24:16.126Z,4.87
2022-08-09T05:25:18.571Z,4.77
2022-08-09T05:26:26.493Z,4.83
2022-08-09T05:27:46.275Z,6.20
2022-08-09T05:28:49.897Z,4.80
2022-08-09T05:29:54.127Z,4.90
2022-08-09T05:30:56.023Z,5.20
2022-08-09T05:32:00.297Z,5.20
2022-08-09T05:33:02.252Z,5.40
2022-08-09T05:34:04.059Z,5.13
2022-08-09T05:35:06.490Z,5.20
2022-08-09T05:36:09.178Z,5.50
2022-08-09T05:37:13.871Z,4.90
2022-08-09T05:38:22.161Z,4.97
2022-08-09T05:39:29.087Z,4.80
2022-08-09T05:40:31.558Z,5.43
2022-08-09T05:41:33.471Z,4.77
2022-08-09T05:42:36.032Z,5.00
2022-08-09T05:43:39.078Z,4.97
2022-08-09T05:44:47.704Z,4.27
2022-08-09T05:45:57.194Z,4.60
2022-08-09T05:46:59.848Z,4.50
2022-08-09T05:48:01.612Z,4.80
2022-08-09T05:49:03.124Z,5.07
2022-08-09T05:50:25.455Z,5.33
2022-08-09T05:51:46.028Z,5.40
2022-08-09T05:52:53.649Z,4.53
2022-08-09T05:53:57.388Z,4.60
2022-08-09T05:55:06.862Z,5.60
2022-08-09T05:56:09.600Z,5.20
2022-08-09T05:57:19.220Z,5.10
2022-08-09T05:58:20.885Z,5.23
2022-08-09T05:59:23.205Z,5.10
2022-08-09T06:00:28.659Z,5.10
2022-08-09T06:01:33.472Z,4.30
2022-08-09T06:02:36.370Z,4.93
2022-08-09T06:03:58.487Z,5.10
2022-08-09T06:05:00.562Z,5.70
2022-08-09T06:06:06.008Z,5.30
2022-08-09T06:07:08.050Z,4.70
2022-08-09T06:08:11.462Z,5.03
2022-08-09T06:09:40.911Z,5.10
2022-08-09T06:10:40.749Z,4.40
2022-08-09T06:11:56.885Z,5.20
2022-08-09T06:13:11.846Z,4.23
2022-08-09T06:14:20.161Z,4.87
2022-08-09T06:15:21.797Z,5.27
2022-08-09T06:16:23.422Z,6.00
2022-08-09T06:17:25.434Z,3.97
2022-08-09T06:18:27.001Z,4.50
2022-08-09T06:19:29.106Z,4.90
2022-08-09T06:20:34.560Z,4.70
2022-08-09T06:21:37.618Z,4.80
2022-08-09T06:22:52.070Z,5.03
2022-08-09T06:24:01.473Z,5.27
2022-08-09T06:25:04.818Z,4.47
2022-08-09T06:26:10.160Z,4.70
2022-08-09T06:27:12.832Z,5.37
2022-08-09T06:28:17.231Z,4.60
2022-08-09T06:29:22.530Z,4.70
2022-08-09T06:30:26.432Z,4.93
2022-08-09T06:31:40.125Z,5.13
2022-08-09T06:33:40.752Z,4.30
2022-08-09T06:34:17.444Z,4.73
2022-08-09T06:35:20.826Z,5.03
2022-08-09T06:36:27.006Z,5.30
2022-08-09T06:37:29.093Z,5.03
2022-08-09T06:38:36.381Z,5.17
2022-08-09T06:39:58.143Z,5.50
2022-08-09T06:41:00.726Z,5.20
2022-08-09T06:42:09.280Z,5.23
2022-08-09T06:43:13.597Z,4.77
2022-08-09T06:44:18.376Z,6.20
2022-08-09T06:46:04.775Z,5.07
2022-08-09T06:46:42.052Z,5.30
2022-08-09T06:47:43.696Z,5.03
2022-08-09T06:48:46.380Z,5.23
2022-08-09T06:50:13.814Z,4.80
2022-08-09T06:51:14.794Z,4.77
2022-08-09T06:52:17.775Z,5.17
2022-08-09T06:53:20.537Z,5.47
2022-08-09T06:54:22.351Z,5.90
2022-08-09T06:55:31.852Z,5.07
2022-08-09T06:56:33.571Z,5.53
2022-08-09T06:58:01.840Z,6.50
2022-08-09T07:00:48.792Z,4.80
2022-08-09T07:00:51.246Z,4.90
2022-08-09T07:01:53.548Z,4.97
2022-08-09T07:02:56.785Z,5.13
2022-08-09T07:04:03.943Z,5.80
2022-08-09T07:05:06.595Z,5.07
2022-08-09T07:06:08.411Z,5.00
2022-08-09T07:07:11.829Z,5.90
2022-08-09T07:08:13.933Z,5.23
2022-08-09T07:09:56.438Z,5.23
2022-08-09T07:10:38.514Z,5.83
2022-08-09T07:11:45.593Z,5.33
2022-08-09T07:12:57.270Z,5.30
2022-08-09T07:14:05.394Z,5.47
2022-08-09T07:16:35.300Z,5.30
2022-08-09T07:16:42.655Z,5.33
2022-08-09T07:17:56.267Z,5.17
2022-08-09T07:19:03.745Z,5.20
2022-08-09T07:20:06.617Z,5.37
2022-08-09T07:21:09.908Z,5.13
2022-08-09T07:22:11.931Z,5.47
2022-08-09T07:23:18.518Z,4.97
2022-08-09T07:24:21.702Z,5.60
2022-08-09T07:25:42.685Z,5.05
2022-08-09T07:26:45.379Z,5.70
2022-08-09T07:27:53.581Z,5.28
2022-08-09T07:29:08.133Z,4.80
2022-08-09T07:30:13.861Z,5.30
2022-08-09T07:31:15.414Z,4.60
2022-08-09T07:32:17.643Z,4.80
2022-08-09T07:33:19.129Z,4.90
2022-08-09T07:34:21.893Z,5.53
2022-08-09T07:35:27.410Z,5.57
2022-08-09T07:36:32.451Z,4.80
2022-08-09T07:37:43.457Z,5.00
2022-08-09T07:38:52.574Z,4.95
2022-08-09T07:39:59.861Z,5.35
2022-08-09T07:41:11.443Z,4.57
2022-08-09T07:42:14.843Z,5.10
2022-08-09T07:43:17.240Z,5.28
2022-08-09T07:44:18.988Z,5.88
2022-08-09T07:45:38.325Z,5.45
2022-08-09T07:46:41.637Z,5.07
2022-08-09T07:48:00.923Z,5.68
2022-08-09T07:49:06.594Z,4.88
2022-08-09T07:50:16.736Z,4.93
2022-08-09T07:52:05.387Z,4.78
2022-08-09T07:52:43.056Z,5.20
2022-08-09T07:54:07.168Z,4.85
2022-08-09T07:55:09.500Z,5.13
2022-08-09T07:56:26.696Z,4.72
2022-08-09T07:57:33.800Z,4.53
2022-08-09T07:58:37.939Z,4.75
2022-08-09T07:59:51.035Z,5.18
2022-08-09T08:01:06.307Z,4.82
2022-08-09T08:02:09.016Z,4.78
2022-08-09T08:03:11.476Z,5.20
2022-08-09T08:04:13.041Z,5.22
2022-08-09T08:05:18.536Z,4.75
2022-08-09T08:06:21.650Z,5.15
2022-08-09T08:08:06.527Z,5.20
2022-08-09T08:09:01.060Z,4.55
2022-08-09T08:10:08.690Z,4.75
2022-08-09T08:12:09.130Z,4.60
2022-08-09T08:12:35.901Z,4.95
2022-08-09T08:13:42.612Z,4.50
2022-08-09T08:14:58.509Z,5.10
2022-08-09T08:16:01.150Z,4.82
2022-08-09T08:17:08.775Z,5.47
2022-08-09T08:18:10.664Z,5.05
2022-08-09T08:19:17.428Z,4.35
2022-08-09T08:20:27.293Z,5.40
2022-08-09T08:21:32.838Z,4.97
2022-08-09T08:22:34.538Z,4.53
2022-08-09T08:23:38.103Z,3.92
2022-08-09T08:24:47.215Z,4.22
2022-08-09T08:26:06.180Z,5.07
2022-08-09T08:27:17.066Z,4.35
2022-08-09T08:28:31.964Z,5.15
2022-08-09T08:29:39.225Z,4.60
2022-08-09T08:30:47.606Z,4.22
2022-08-09T08:32:03.755Z,5.32
2022-08-09T08:33:11.894Z,4.18
2022-08-09T08:34:14.064Z,4.50
2022-08-09T08:35:18.011Z,4.47
2022-08-09T08:36:29.128Z,3.88
2022-08-09T08:37:41.442Z,4.50
2022-08-09T08:38:53.993Z,4.90
2022-08-09T08:39:58.089Z,4.95
2022-08-09T08:41:01.785Z,4.70
2022-08-09T08:42:08.536Z,4.50
2022-08-09T08:43:13.346Z,5.05
2022-08-09T08:44:23.181Z,4.43
2022-08-09T08:45:36.693Z,4.75
2022-08-09T08:46:59.744Z,4.88
2022-08-09T08:48:03.173Z,4.43
2022-08-09T08:49:12.989Z,4.32
2022-08-09T08:50:21.343Z,4.00
2022-08-09T08:51:25.586Z,4.63
2022-08-09T08:52:58.248Z,4.20
2022-08-09T08:54:04.355Z,5.00
2022-08-09T08:55:07.355Z,4.50
2022-08-09T08:56:10.905Z,4.30
2022-08-09T08:57:28.128Z,4.57
2022-08-09T08:58:31.357Z,4.60
2022-08-09T08:59:44.438Z,4.43
2022-08-09T09:00:56.373Z,5.05
2022-08-09T09:01:59.894Z,4.20
2022-08-09T09:03:11.562Z,4.20
2022-08-09T09:04:27.238Z,4.45
2022-08-09T09:05:57.857Z,4.75
2022-08-09T09:06:56.986Z,4.40
2022-08-09T09:07:59.787Z,4.55
2022-08-09T09:09:06.851Z,4.43
2022-08-09T09:10:25.844Z,4.70
2022-08-09T09:11:29.960Z,4.95
2022-08-09T09:12:36.515Z,4.43
2022-08-09T09:13:50.224Z,4.78
2022-08-09T09:15:00.819Z,4.50
2022-08-09T09:16:02.899Z,4.85
2022-08-09T09:17:05.881Z,4.72
2022-08-09T09:18:16.603Z,4.82
2022-08-09T09:20:40.465Z,4.47
2022-08-09T09:22:34.149Z,4.13
2022-08-09T09:23:57.252Z,4.80
2022-08-09T09:26:01.158Z,4.80
2022-08-09T09:26:23.976Z,4.90
2022-08-09T09:28:03.991Z,4.70
2022-08-09T09:29:03.270Z,4.95
2022-08-09T09:30:28.747Z,5.15
2022-08-09T09:32:03.523Z,4.30
2022-08-09T09:33:17.014Z,4.68
2022-08-09T09:34:19.745Z,4.93
2022-08-09T09:35:21.219Z,5.10
2022-08-09T09:36:22.714Z,4.95
2022-08-09T09:37:31.832Z,4.57
2022-08-09T09:38:47.131Z,4.70
2022-08-09T09:39:57.157Z,5.60
2022-08-09T09:40:59.272Z,4.57
2022-08-09T09:42:10.319Z,4.45
2022-08-09T09:43:20.723Z,4.30
2022-08-09T09:44:25.288Z,5.10
2022-08-09T09:45:30.859Z,4.32
2022-08-09T09:46:46.026Z,4.40
2022-08-09T09:47:58.235Z,4.18
2022-08-09T09:49:04.874Z,4.65
2022-08-09T09:50:16.793Z,4.30
2022-08-09T09:51:25.969Z,4.60
2022-08-09T09:52:56.223Z,4.15
2022-08-09T09:54:20.248Z,4.00
2022-08-09T09:55:32.241Z,3.95
2022-08-09T09:56:53.415Z,4.00
2022-08-09T09:58:19.121Z,3.75
2022-08-09T09:59:35.419Z,3.55
2022-08-09T10:00:54.399Z,4.78
2022-08-09T10:02:00.832Z,3.80
2022-08-09T10:03:11.850Z,3.88
2022-08-09T10:04:22.810Z,3.72
2022-08-09T10:06:01.082Z,3.47
2022-08-09T10:06:54.353Z,4.20
2022-08-09T10:08:27.411Z,3.92
2022-08-09T10:09:27.639Z,3.60
2022-08-09T10:10:31.320Z,3.97
2022-08-09T10:11:54.008Z,3.63
2022-08-09T10:12:56.244Z,3.85
2022-08-09T10:13:58.259Z,3.95
2022-08-09T10:15:17.458Z,4.13
2022-08-09T10:16:56.723Z,4.38
2022-08-09T10:18:12.495Z,4.43
2022-08-09T10:19:14.487Z,3.92
2022-08-09T10:20:27.152Z,3.47
2022-08-09T10:21:36.033Z,3.63
2022-08-09T10:22:39.311Z,3.72
2022-08-09T10:23:40.924Z,3.58
2022-08-09T10:24:44.049Z,4.00
2022-08-09T10:26:06.766Z,4.32
2022-08-09T10:27:17.107Z,4.05
2022-08-09T10:28:19.364Z,4.03
2022-08-09T10:30:11.725Z,3.65
2022-08-09T10:32:13.266Z,4.00
2022-08-09T10:34:10.251Z,4.00
2022-08-09T10:34:51.819Z,3.55
2022-08-09T10:35:56.218Z,3.63
2022-08-09T10:37:04.436Z,3.70
2022-08-09T10:38:33.990Z,3.83
2022-08-09T10:39:40.940Z,3.88
2022-08-09T10:40:51.463Z,3.60
2022-08-09T10:41:53.872Z,3.40
2022-08-09T10:42:56.612Z,3.80
2022-08-09T10:43:59.260Z,4.07
2022-08-09T10:45:11.809Z,3.80
2022-08-09T10:46:52.592Z,3.67
2022-08-09T10:48:17.211Z,3.20
2022-08-09T10:49:50.034Z,3.67
2022-08-09T10:51:29.855Z,3.40
2022-08-09T10:52:54.449Z,3.65
2022-08-09T10:54:12.242Z,4.03
2022-08-09T10:55:49.197Z,3.50
2022-08-09T10:57:15.672Z,3.55
2022-08-09T10:58:34.694Z,3.70
2022-08-09T10:59:55.736Z,4.25
2022-08-09T11:03:03.338Z,3.50
2022-08-09T11:03:15.453Z,3.08
2022-08-09T11:04:20.146Z,4.15
2022-08-09T11:05:31.284Z,4.07
2022-08-09T11:06:37.194Z,3.90
2022-08-09T11:07:54.031Z,4.60
2022-08-09T11:09:15.780Z,3.75
2022-08-09T11:10:47.087Z,2.88
2022-08-09T11:12:00.695Z,3.55
2022-08-09T11:13:50.531Z,3.17
2022-08-09T11:14:51.215Z,3.10
2022-08-09T11:16:35.297Z,3.55
2022-08-09T11:17:44.414Z,2.70
2022-08-09T11:18:48.360Z,3.10
2022-08-09T11:20:19.918Z,3.78
2022-08-09T11:22:10.226Z,3.28
2022-08-09T11:23:24.014Z,3.47
2022-08-09T11:25:08.130Z,2.88
2022-08-09T11:26:40.799Z,3.78
2022-08-09T11:28:09.255Z,3.13
2022-08-09T11:30:06.130Z,3.47
2022-08-09T11:31:49.402Z,2.90
2022-08-09T11:33:10.511Z,3.10
2022-08-09T11:34:24.659Z,3.17
2022-08-09T11:35:49.981Z,3.28
2022-08-09T11:36:55.821Z,3.15
2022-08-09T11:38:13.516Z,3.13
2022-08-09T11:39:16.682Z,2.92
2022-08-09T11:40:24.114Z,3.38
2022-08-09T11:41:38.119Z,3.38
2022-08-09T11:43:01.272Z,3.00
2022-08-09T11:44:02.818Z,3.13
2022-08-09T11:45:05.762Z,3.22
2022-08-09T11:46:10.259Z,2.95
2022-08-09T11:47:14.385Z,3.35
2022-08-09T11:48:26.095Z,3.35
2022-08-09T11:50:56.972Z,3.20
2022-08-09T11:53:02.971Z,3.00
2022-08-09T11:53:21.074Z,2.90
2022-08-09T11:54:29.707Z,3.05
2022-08-09T11:55:53.493Z,3.47
2022-08-09T11:58:00.824Z,3.10
2022-08-09T11:59:00.271Z,3.60
2022-08-09T12:00:15.825Z,3.15
2022-08-09T12:02:00.724Z,3.20
2022-08-09T12:02:43.319Z,3.40
2022-08-09T12:04:09.764Z,3.17
2022-08-09T12:05:37.869Z,3.10
2022-08-09T12:06:55.767Z,3.50
2022-08-09T12:07:59.469Z,3.40
2022-08-09T12:09:19.113Z,3.58
2022-08-09T12:10:39.647Z,3.03
2022-08-09T12:12:02.551Z,3.03
2022-08-09T12:14:07.778Z,3.20
2022-08-09T12:14:40.764Z,3.03
2022-08-09T12:16:03.085Z,3.40
2022-08-09T12:17:34.008Z,3.45
2022-08-09T12:18:33.473Z,3.25
2022-08-09T12:19:35.976Z,3.10
2022-08-09T12:20:43.661Z,2.92
2022-08-09T12:21:51.496Z,3.03
2022-08-09T12:23:01.525Z,3.22
2022-08-09T12:24:09.437Z,2.97
2022-08-09T12:25:17.395Z,2.92
2022-08-09T12:26:26.167Z,2.92
2022-08-09T12:28:58.115Z,2.88
2022-08-09T12:29:00.252Z,3.50
2022-08-09T12:30:38.445Z,2.95
2022-08-09T12:32:01.649Z,2.90
2022-08-09T12:33:04.468Z,3.22
2022-08-09T12:34:06.453Z,3.22
2022-08-09T12:35:11.045Z,3.40
2022-08-09T12:36:27.825Z,3.00
2022-08-09T12:37:50.366Z,2.92
2022-08-09T12:38:54.875Z,3.42
2022-08-09T12:40:08.162Z,3.20
2022-08-09T12:41:10.073Z,3.47
2022-08-09T12:42:16.259Z,3.13
2022-08-09T12:43:23.844Z,3.00
2022-08-09T12:44:51.891Z,3.30
2022-08-09T12:45:59.650Z,3.30
2022-08-09T12:47:02.268Z,3.13
2022-08-09T12:48:19.785Z,3.50
2022-08-09T12:49:23.359Z,3.00
2022-08-09T12:50:25.425Z,3.10
2022-08-09T12:51:30.289Z,2.80
2022-08-09T12:53:17.763Z,3.45
2022-08-09T12:54:11.157Z,3.33
2022-08-09T12:56:15.908Z,2.72
2022-08-09T12:56:51.144Z,3.30
2022-08-09T12:57:53.500Z,3.30
2022-08-09T12:59:10.946Z,2.92
2022-08-09T13:00:25.149Z,3.42
2022-08-09T13:01:28.260Z,2.80
2022-08-09T13:02:31.687Z,3.05
2022-08-09T13:03:57.005Z,2.90
2022-08-09T13:05:02.469Z,3.20
2022-08-09T13:06:13.431Z,3.17
2022-08-09T13:07:19.836Z,2.65
2022-08-09T13:08:40.395Z,2.58
2022-08-09T13:09:43.483Z,2.75
2022-08-09T13:11:00.928Z,3.13
2022-08-09T13:12:14.897Z,2.92
2022-08-09T13:14:37.153Z,3.22
2022-08-09T13:15:07.090Z,3.22
2022-08-09T13:16:10.988Z,2.90
2022-08-09T13:17:44.489Z,3.60
2022-08-09T13:18:53.752Z,3.25
2022-08-09T13:20:10.038Z,2.75
2022-08-09T13:22:35.666Z,3.25
2022-08-09T13:24:05.978Z,2.88
2022-08-09T13:24:53.482Z,3.22
2022-08-09T13:25:55.913Z,3.38
2022-08-09T13:26:58.446Z,3.10
2022-08-09T13:28:09.854Z,3.20
2022-08-09T13:29:15.533Z,3.22
2022-08-09T13:30:48.774Z,3.00
2022-08-09T13:32:19.179Z,3.05
2022-08-09T13:33:24.603Z,3.10
2022-08-09T13:34:46.540Z,3.20
2022-08-09T13:36:39.758Z,3.00
2022-08-09T13:37:11.957Z,3.08
2022-08-09T13:38:33.011Z,2.90
2022-08-09T13:41:45.822Z,3.00
2022-08-09T13:41:55.966Z,2.90
2022-08-09T13:42:23.047Z,2.95
2022-08-09T13:43:35.654Z,3.47
2022-08-09T13:44:45.876Z,3.13
2022-08-09T13:46:42.739Z,3.50
2022-08-09T13:47:27.371Z,3.15
2022-08-09T13:48:34.876Z,3.50
2022-08-09T13:49:56.246Z,3.00
2022-08-09T13:50:59.384Z,3.25
2022-08-09T13:52:01.439Z,3.30
2022-08-09T13:53:03.090Z,3.05
2022-08-09T13:54:05.469Z,3.20
2022-08-09T13:55:13.597Z,3.05
2022-08-09T13:56:15.732Z,3.15
2022-08-09T13:57:37.359Z,3.00
2022-08-09T13:58:42.161Z,3.20
2022-08-09T13:59:44.651Z,2.95
2022-08-09T14:00:52.488Z,3.20
2022-08-09T14:01:56.142Z,3.03
2022-08-09T14:04:01.176Z,3.08
2022-08-09T14:04:26.513Z,3.47
2022-08-09T14:05:56.630Z,3.10
2022-08-09T14:06:55.270Z,3.10
2022-08-09T14:08:01.396Z,3.08
2022-08-09T14:09:05.232Z,3.30
2022-08-09T14:10:07.975Z,3.15
2022-08-09T14:11:20.519Z,2.78
2022-08-09T14:12:22.003Z,3.03
2022-08-09T14:14:16.417Z,3.03
2022-08-09T14:14:47.082Z,3.17
2022-08-09T14:16:10.112Z,3.30
2022-08-09T14:17:13.070Z,3.10
2022-08-09T14:18:29.677Z,3.35
2022-08-09T14:19:33.822Z,3.20
2022-08-09T14:20:35.617Z,3.10
2022-08-09T14:21:37.541Z,3.20
2022-08-09T14:22:39.954Z,3.33
2022-08-09T14:23:55.579Z,3.40
2022-08-09T14:24:58.332Z,3.42
2022-08-09T14:26:05.655Z,3.42
2022-08-09T14:27:20.682Z,3.40
2022-08-09T14:28:22.679Z,3.58
2022-08-09T14:30:19.322Z,3.40
2022-08-09T14:30:50.393Z,3.40
2022-08-09T14:31:53.922Z,2.97
2022-08-09T14:32:56.213Z,3.33
2022-08-09T14:33:59.220Z,3.00
2022-08-09T14:35:07.199Z,2.90
2022-08-09T14:36:20.766Z,2.97
2022-08-09T14:37:28.119Z,3.50
2022-08-09T14:38:30.751Z,3.13
2022-08-09T14:39:46.396Z,3.83
2022-08-09T14:41:02.288Z,3.35
2022-08-09T14:42:06.420Z,3.28
2022-08-09T14:43:08.662Z,2.92
2022-08-09T14:44:11.415Z,2.83
2022-08-09T14:46:39.618Z,2.90
2022-08-09T14:46:58.131Z,3.40
2022-08-09T14:47:59.605Z,3.15
2022-08-09T14:49:02.245Z,2.90
2022-08-09T14:50:06.583Z,2.80
2022-08-09T14:51:08.401Z,3.25
2022-08-09T14:52:10.638Z,3.20
2022-08-09T14:53:14.023Z,3.33
2022-08-09T14:54:16.792Z,3.05
2022-08-09T14:55:24.126Z,3.08
2022-08-09T14:56:26.893Z,3.30
2022-08-09T14:57:32.140Z,2.90
2022-08-09T14:58:45.551Z,3.05
2022-08-09T14:59:48.824Z,3.28
2022-08-09T15:00:51.936Z,3.10
2022-08-09T15:01:53.832Z,3.00
2022-08-09T15:02:55.294Z,3.20
2022-08-09T15:03:59.930Z,2.92
2022-08-09T15:05:06.959Z,2.78
2022-08-09T15:06:10.145Z,3.10
2022-08-09T15:07:13.059Z,2.67
2022-08-09T15:08:16.431Z,3.00
2022-08-09T15:10:03.335Z,3.35
2022-08-09T15:10:43.187Z,3.05
2022-08-09T15:12:03.482Z,2.90
2022-08-09T15:13:08.677Z,3.00
2022-08-09T15:14:13.164Z,3.05
2022-08-09T15:15:15.780Z,2.63
2022-08-09T15:16:17.244Z,2.65
2022-08-09T15:17:18.707Z,2.95
2022-08-09T15:18:20.716Z,2.90
2022-08-09T15:19:26.194Z,2.85
2022-08-09T15:21:57.605Z,2.55
2022-08-09T15:21:58.054Z,2.67
2022-08-09T15:24:01.493Z,3.15
2022-08-09T15:24:27.612Z,2.60
2022-08-09T15:25:39.258Z,2.90
2022-08-09T15:26:46.247Z,2.85
2022-08-09T15:27:55.204Z,3.53
2022-08-09T15:29:04.698Z,2.85
2022-08-09T15:30:55.572Z,2.78
2022-08-09T15:31:41.679Z,2.45
2022-08-09T15:32:45.499Z,2.55
2022-08-09T15:34:31.518Z,2.45
2022-08-09T15:35:18.438Z,2.88
2022-08-09T15:36:31.107Z,2.88
2022-08-09T15:37:37.002Z,2.90
2022-08-09T15:38:39.968Z,3.05
2022-08-09T15:39:53.851Z,2.70
2022-08-09T15:40:57.028Z,3.17
2022-08-09T15:41:58.633Z,3.10
2022-08-09T15:43:00.250Z,3.20
2022-08-09T15:44:03.980Z,3.10
2022-08-09T15:45:07.690Z,2.95
2022-08-09T15:46:32.305Z,2.95
2022-08-09T15:47:45.751Z,3.17